Weather History for Greeley, CO

Change the Weather History Date:

Saturday, May 3, 2014

  Actual Average Record
Temperature  
Mean Temperature 58 °F -  
Max Temperature 82 °F 65 °F 85 °F (1986)
Min Temperature 35 °F 37 °F 21 °F (2008)
Degree Days  
Heating Degree Days 6    
Growing Degree Days 8 (Base 50)    
Moisture  
Dew Point 29 °F    
Average Humidity 36    
Maximum Humidity 75    
Minimum Humidity 11    
Precipitation  
Precipitation 0.00 in - - ()
Sea Level Pressure  
Sea Level Pressure 29.93 in    
Wind  
Wind Speed 7 mph (SSW)    
Max Wind Speed 15 mph    
Max Gust Speed 20 mph    
Visibility 10 miles    
Events      
Averages and records for this station are not official NWS values.
T = Trace of Precipitation, MM = Missing Value Source: NWS Daily Summary

Daily Weather History Graph

Daily Weather History Graph

Search for Another Location

Airport:

Trip Planner

Search our weather history database for the weather conditions in past years. The results will help you decide how hot, cold, wet, or windy it might be!

Date:

Astronomy

May. 03, 2014 Rise Set
Actual Time 5:55 AM MDT 7:56 PM MDT
Civil Twilight 5:25 AM MDT 8:26 PM MDT
Nautical Twilight 4:49 AM MDT 9:02 PM MDT
Astronomical Twilight 4:09 AM MDT 9:42 PM MDT
Moon 9:26 AM MDT (5/3) No Moon Set
Length of Visible Light 15h 00m
Length of Day
14h 01m
Waxing Crescent, 20% of the Moon is Illuminated
May 3
Waxing Crescent
May 6
First Quarter
May 14
Full
May 21
Last Quarter
May 28
New

Hourly Weather History & Observations

Time (MDT) Temp. Windchill Dew Point Humidity Pressure Visibility Wind Dir Wind Speed Gust Speed Precip Events Conditions
12:15 AM 59.0 °F - 33.8 °F 39% 29.94 in 10.0 mi SSE 6.9 mph - N/A   Mostly Cloudy
12:35 AM 55.4 °F - 33.8 °F 44% 29.94 in 10.0 mi SSE 5.8 mph - N/A   Partly Cloudy
12:55 AM 53.6 °F - 33.8 °F 47% 29.94 in 10.0 mi Calm Calm - N/A   Clear
1:15 AM 50.0 °F - 33.8 °F 54% 29.94 in 10.0 mi SW 4.6 mph - N/A   Clear
1:35 AM 48.2 °F - 33.8 °F 58% 29.94 in 10.0 mi Calm Calm - N/A   Clear
1:55 AM 44.6 °F 43.1 °F 30.2 °F 57% 29.94 in 10.0 mi NW 3.5 mph - N/A   Clear
2:15 AM 44.6 °F 43.1 °F 30.2 °F 57% 29.96 in 10.0 mi WNW 3.5 mph - N/A   Clear
2:35 AM 42.8 °F 39.3 °F 28.4 °F 57% 29.95 in 10.0 mi North 5.8 mph - N/A   Clear
2:55 AM 44.6 °F 39.7 °F 30.2 °F 57% 29.96 in 10.0 mi NNW 9.2 mph - N/A   Clear
3:15 AM 42.8 °F 36.6 °F 28.4 °F 57% 29.96 in 10.0 mi NNW 11.5 mph - N/A   Clear
3:35 AM 44.6 °F 38.8 °F 30.2 °F 57% 29.96 in 10.0 mi North 11.5 mph - N/A   Clear
4:15 AM 44.6 °F 38.1 °F 32.0 °F 61% 29.96 in 10.0 mi North 13.8 mph - N/A   Clear
4:35 AM 44.6 °F 42.2 °F 32.0 °F 61% 29.97 in 10.0 mi SSW 4.6 mph - N/A   Clear
4:55 AM 42.8 °F 38.6 °F 32.0 °F 66% 29.96 in 10.0 mi NNW 6.9 mph - N/A   Clear
5:15 AM 39.2 °F 37.0 °F 30.2 °F 70% 29.97 in 10.0 mi WSW 3.5 mph - N/A   Clear
5:35 AM 39.2 °F - 30.2 °F 70% 29.97 in 10.0 mi Calm Calm - N/A   Clear
5:55 AM 37.4 °F 32.8 °F 30.2 °F 75% 29.97 in 10.0 mi North 5.8 mph - N/A   Clear
6:15 AM 35.6 °F 31.7 °F 28.4 °F 75% 29.97 in 10.0 mi NNE 4.6 mph - N/A   Clear
6:35 AM 37.4 °F 34.9 °F 30.2 °F 75% 29.98 in 10.0 mi SSW 3.5 mph - N/A   Clear
6:55 AM 42.8 °F 40.1 °F 33.8 °F 70% 29.99 in 10.0 mi SW 4.6 mph - N/A   Clear
7:15 AM 46.4 °F 45.2 °F 33.8 °F 62% 29.99 in 10.0 mi South 3.5 mph - N/A   Clear
7:35 AM 48.2 °F - 35.6 °F 62% 29.99 in 10.0 mi SSW 6.9 mph - N/A   Clear
7:55 AM 50.0 °F - 35.6 °F 58% 30.00 in 10.0 mi SW 8.1 mph - N/A   Clear
8:15 AM 51.8 °F - 37.4 °F 58% 30.00 in 10.0 mi SW 6.9 mph - N/A   Clear
8:35 AM 53.6 °F - 35.6 °F 51% 30.00 in 10.0 mi SSW 4.6 mph - N/A   Clear
8:55 AM 55.4 °F - 37.4 °F 51% 30.00 in 10.0 mi SW 4.6 mph - N/A   Clear
9:15 AM 57.2 °F - 37.4 °F 48% 29.99 in 10.0 mi SSW 5.8 mph - N/A   Clear
9:35 AM 59.0 °F - 37.4 °F 45% 29.98 in 10.0 mi SW 6.9 mph - N/A   Clear
9:55 AM 60.8 °F - 39.2 °F 45% 29.98 in 10.0 mi SSW 6.9 mph - N/A   Clear
10:15 AM 66.2 °F - 39.2 °F 37% 29.97 in 10.0 mi SSW 8.1 mph - N/A   Clear
10:35 AM 71.6 °F - 39.2 °F 31% 29.97 in 10.0 mi SSW 9.2 mph - N/A   Clear
10:55 AM 75.2 °F - 33.8 °F 22% 29.97 in 10.0 mi SW 9.2 mph - N/A   Clear
11:15 AM 77.0 °F - 30.2 °F 18% 29.97 in 10.0 mi SSW 11.5 mph - N/A   Clear
11:35 AM 77.0 °F - 28.4 °F 17% 29.96 in 10.0 mi SSW 13.8 mph - N/A   Clear
11:55 AM 78.8 °F - 26.6 °F 15% 29.96 in 10.0 mi SW 12.7 mph 17.3 mph N/A   Clear
12:15 PM 78.8 °F - 26.6 °F 15% 29.96 in 10.0 mi WSW 13.8 mph 19.6 mph N/A   Clear
12:35 PM 78.8 °F - 26.6 °F 15% 29.95 in 10.0 mi WSW 11.5 mph 19.6 mph N/A   Clear
12:55 PM 78.8 °F - 26.6 °F 15% 29.94 in 10.0 mi WSW 12.7 mph 19.6 mph N/A   Clear
1:15 PM 78.8 °F - 24.8 °F 14% 29.94 in 10.0 mi SW 10.4 mph - N/A   Clear
1:35 PM 77.0 °F - 24.8 °F 14% 29.94 in 10.0 mi West 4.6 mph - N/A   Clear
2:15 PM 77.0 °F - 24.8 °F 14% 29.93 in 10.0 mi SSW 8.1 mph - N/A   Clear
2:35 PM 78.8 °F - 24.8 °F 14% 29.93 in 10.0 mi South 11.5 mph - N/A   Clear
2:55 PM 78.8 °F - 24.8 °F 14% 29.92 in 10.0 mi South 13.8 mph - N/A   Clear
3:15 PM 82.4 °F - 26.6 °F 13% 29.90 in 10.0 mi SSW 12.7 mph 19.6 mph N/A   Clear
3:35 PM 82.4 °F - 24.8 °F 12% 29.90 in 10.0 mi SSW 15.0 mph - N/A   Clear
3:55 PM 82.4 °F - 24.8 °F 12% 29.89 in 10.0 mi SSW 9.2 mph 17.3 mph N/A   Clear
4:15 PM 82.4 °F - 24.8 °F 12% 29.88 in 10.0 mi South 10.4 mph - N/A   Clear
4:35 PM 82.4 °F - 23.0 °F 11% 29.88 in 10.0 mi South 15.0 mph 19.6 mph N/A   Clear
4:55 PM 82.4 °F - 23.0 °F 11% 29.87 in 10.0 mi South 15.0 mph - N/A   Clear
5:15 PM 82.4 °F - 23.0 °F 11% 29.87 in 10.0 mi SSW 9.2 mph - N/A   Clear
5:35 PM 80.6 °F - 23.0 °F 12% 29.87 in 10.0 mi SSW 10.4 mph - N/A   Clear
5:55 PM 78.8 °F - 21.2 °F 12% 29.87 in 10.0 mi SSW 9.2 mph - N/A   Clear
6:15 PM 80.6 °F - 23.0 °F 12% 29.86 in 10.0 mi SSW 8.1 mph - N/A   Clear
6:35 PM 78.8 °F - 24.8 °F 14% 29.86 in 10.0 mi South 8.1 mph - N/A   Clear
6:55 PM 75.2 °F - 26.6 °F 17% 29.86 in 10.0 mi South 8.1 mph - N/A   Clear
7:15 PM 73.4 °F - 26.6 °F 18% 29.86 in 10.0 mi South 8.1 mph - N/A   Clear
7:35 PM 69.8 °F - 26.6 °F 20% 29.86 in 10.0 mi South 6.9 mph - N/A   Clear
7:55 PM 68.0 °F - 26.6 °F 21% 29.86 in 10.0 mi South 5.8 mph - N/A   Clear
8:15 PM 66.2 °F - 24.8 °F 21% 29.86 in 10.0 mi South 8.1 mph - N/A   Clear
8:35 PM 64.4 °F - 24.8 °F 22% 29.87 in 10.0 mi SSW 5.8 mph - N/A   Clear
8:55 PM 60.8 °F - 28.4 °F 29% 29.87 in 10.0 mi South 8.1 mph - N/A   Clear
9:15 PM 62.6 °F - 26.6 °F 26% 29.87 in 10.0 mi South 6.9 mph - N/A   Clear
9:35 PM 59.0 °F - 28.4 °F 31% 29.88 in 10.0 mi SSW 4.6 mph - N/A   Clear
9:55 PM 59.0 °F - 28.4 °F 31% 29.88 in 10.0 mi SSW 8.1 mph - N/A   Clear
10:15 PM 57.2 °F - 28.4 °F 33% 29.88 in 10.0 mi South 6.9 mph - N/A   Clear
10:35 PM 57.2 °F - 28.4 °F 33% 29.89 in 10.0 mi South 9.2 mph - N/A   Clear
10:55 PM 57.2 °F - 28.4 °F 33% 29.88 in 10.0 mi SSW 9.2 mph - N/A   Clear
11:15 PM 57.2 °F - 28.4 °F 33% 29.88 in 10.0 mi South 4.6 mph - N/A   Clear
11:35 PM 53.6 °F - 30.2 °F 41% 29.88 in 10.0 mi South 4.6 mph - N/A   Clear
11:55 PM 55.4 °F - 30.2 °F 38% 29.88 in 10.0 mi SSW 4.6 mph - N/A   Clear